Time;durP1;ratioP1;P1;durP2;ratioP2;P2;SDS_P1;SDS_P2;PMS_P1;PMS_P2;Temp;Humidity;BMP_temperature;BMP_pressure;BME280_temperature;BME280_humidity;BME280_pressure;Samples;Min_cycle;Max_cycle;Signal;HPM_P1;HPM_P2
2021/06/02 00:01:33;;;;;;;14.15;2.55;;;;;;;23.47;43.14;99958.53;4481362;32;34150;-70
2021/06/02 00:04:02;;;;;;;7.07;2.20;;;;;;;23.46;43.15;99960.44;4481571;32;33534;-68
2021/06/02 00:06:30;;;;;;;9.10;2.60;;;;;;;23.46;43.24;99965.03;4465663;32;33325;-69
2021/06/02 00:08:58;;;;;;;8.93;2.37;;;;;;;23.47;43.31;99958.53;4465844;32;33865;-71
2021/06/02 00:11:26;;;;;;;12.27;2.53;;;;;;;23.47;43.26;99966.72;4467566;32;34414;-71
2021/06/02 00:13:54;;;;;;;5.95;2.03;;;;;;;23.46;43.28;99962.31;4468821;32;33731;-70
2021/06/02 00:16:23;;;;;;;8.38;2.12;;;;;;;23.45;43.25;99966.06;4468089;32;33510;-70
2021/06/02 00:18:51;;;;;;;11.45;2.75;;;;;;;23.45;43.25;99958.75;4469071;32;33853;-71
2021/06/02 00:21:19;;;;;;;8.43;2.20;;;;;;;23.46;43.20;99959.59;4455233;32;33836;-69
2021/06/02 00:23:46;;;;;;;11.63;2.00;;;;;;;23.45;43.20;99958.75;4469199;32;34586;-70
2021/06/02 00:26:14;;;;;;;8.13;2.30;;;;;;;23.45;43.20;99960.63;4469207;32;34858;-69
2021/06/02 00:28:41;;;;;;;15.68;2.55;;;;;;;23.44;43.13;99954.34;4468072;32;33773;-70
2021/06/02 00:31:09;;;;;;;9.65;2.20;;;;;;;23.44;43.33;99957.06;4469149;32;33839;-70
2021/06/02 00:33:37;;;;;;;9.77;2.30;;;;;;;23.44;43.30;99962.53;4455127;32;35218;-68
2021/06/02 00:36:05;;;;;;;8.80;2.62;;;;;;;23.42;43.27;99960.03;4468914;32;33012;-69
2021/06/02 00:38:33;;;;;;;9.18;2.67;;;;;;;23.44;43.35;99959.81;4454889;32;33775;-69
2021/06/02 00:41:01;;;;;;;7.62;2.00;;;;;;;23.42;43.36;99959.19;4467930;32;34659;-69
2021/06/02 00:43:28;;;;;;;11.70;2.47;;;;;;;23.43;43.27;99941.81;4454803;32;34857;-69
2021/06/02 00:45:56;;;;;;;11.82;2.37;;;;;;;23.44;43.21;99957.06;4467850;32;33446;-69
2021/06/02 00:48:24;;;;;;;7.72;2.15;;;;;;;23.42;43.18;99948.31;4468904;32;34448;-70
2021/06/02 00:50:52;;;;;;;9.98;2.40;;;;;;;23.42;43.18;99959.19;4467583;32;34441;-71
2021/06/02 00:53:19;;;;;;;7.90;2.03;;;;;;;23.42;43.32;99956.47;4469056;32;33784;-71
2021/06/02 00:55:47;;;;;;;6.15;2.03;;;;;;;23.41;43.32;99949.38;4467811;32;33380;-71
2021/06/02 00:58:26;;;;;;;9.07;2.30;;;;;;;23.41;43.24;99949.38;4468781;32;33790;-67
2021/06/02 01:00:54;;;;;;;7.62;2.72;;;;;;;23.42;43.16;99956.47;4467673;32;34964;-71
2021/06/02 01:03:24;;;;;;;8.60;2.40;;;;;;;23.42;43.17;99964.66;4468709;32;34890;-71
2021/06/02 01:05:52;;;;;;;4.95;1.90;;;;;;;23.41;43.19;99965.72;4467555;32;33486;-68
2021/06/02 01:08:21;;;;;;;8.98;2.20;;;;;;;23.41;43.14;99971.16;4483336;32;33686;-68
2021/06/02 01:10:50;;;;;;;8.82;2.40;;;;;;;23.40;43.09;99970.31;4484697;32;34765;-70
2021/06/02 01:13:21;;;;;;;6.62;2.42;;;;;;;23.39;43.11;99973.25;4483160;32;33628;-70
2021/06/02 01:15:50;;;;;;;8.90;2.10;;;;;;;23.40;43.22;99973.03;4484588;32;33497;-69
2021/06/02 01:18:19;;;;;;;7.25;1.95;;;;;;;23.39;43.33;99975.97;4483016;32;33890;-71
2021/06/02 01:20:49;;;;;;;8.15;2.33;;;;;;;23.40;43.37;99969.47;4484592;32;34576;-70
2021/06/02 01:23:18;;;;;;;11.60;1.90;;;;;;;23.40;43.31;99969.47;4483125;32;34534;-70
2021/06/02 01:25:45;;;;;;;7.87;2.20;;;;;;;23.39;43.34;99974.09;4483286;32;34232;-67
2021/06/02 01:28:13;;;;;;;4.90;1.95;;;;;;;23.38;43.45;99972.41;4484377;32;34462;-71
2021/06/02 01:30:41;;;;;;;7.87;2.10;;;;;;;23.38;43.39;99969.69;4484213;32;34600;-70
2021/06/02 01:33:27;;;;;;;9.38;1.90;;;;;;;23.38;43.43;99974.31;4483100;32;34215;-69
2021/06/02 01:36:04;;;;;;;7.32;1.92;;;;;;;23.40;43.35;99966.75;4484354;32;33043;-69
2021/06/02 01:38:57;;;;;;;9.20;2.05;;;;;;;23.37;43.33;99970.75;4483063;32;33433;-70
2021/06/02 01:41:52;;;;;;;9.77;1.90;;;;;;;23.38;43.33;99975.16;4482949;32;34698;-69
2021/06/02 01:44:55;;;;;;;9.95;2.12;;;;;;;23.38;43.42;99971.59;4483111;32;33717;-69
2021/06/02 01:47:23;;;;;;;9.52;2.28;;;;;;;23.39;43.66;99973.25;4483210;31;34054;-70
2021/06/02 01:49:51;;;;;;;7.15;2.20;;;;;;;23.36;43.68;99970.97;4484155;32;33713;-68
2021/06/02 01:52:30;;;;;;;8.77;2.28;;;;;;;23.34;43.71;99973.91;4484561;32;33821;-70
2021/06/02 01:55:21;;;;;;;10.13;1.98;;;;;;;23.35;43.54;99967.41;4484194;32;33995;-69
2021/06/02 01:58:23;;;;;;;7.25;2.05;;;;;;;23.36;43.57;99963.66;4483088;32;33527;-70
2021/06/02 02:01:12;;;;;;;5.45;1.70;;;;;;;23.37;43.59;99972.66;4484309;32;34631;-70
2021/06/02 02:03:48;;;;;;;9.27;2.20;;;;;;;23.36;43.57;99962.78;4484286;32;34481;-69
2021/06/02 02:06:44;;;;;;;9.48;2.10;;;;;;;23.33;43.56;99964.09;4484158;32;33531;-68
2021/06/02 02:09:20;;;;;;;9.27;2.20;;;;;;;23.35;43.46;99975.59;4484127;32;34067;-70
2021/06/02 02:11:48;;;;;;;8.00;1.87;;;;;;;23.33;43.51;99974.16;4481533;32;81931;-70
2021/06/02 02:14:45;;;;;;;7.82;1.80;;;;;;;23.33;43.57;99965.97;4484361;32;34697;-70
2021/06/02 02:17:40;;;;;;;8.27;2.05;;;;;;;23.36;43.48;99976.41;4482710;32;33739;-69
2021/06/02 02:20:12;;;;;;;7.82;1.87;;;;;;;23.36;43.59;99977.28;4482858;32;33777;-67
2021/06/02 02:23:11;;;;;;;8.55;1.92;;;;;;;23.33;43.67;99976.88;4470127;32;33765;-70
2021/06/02 02:25:55;;;;;;;6.18;1.98;;;;;;;23.35;43.68;99974.75;4484183;32;33902;-69
2021/06/02 02:28:23;;;;;;;9.65;2.10;;;;;;;23.31;43.63;99973.53;4482942;32;33625;-70
2021/06/02 02:31:17;;;;;;;6.55;1.98;;;;;;;23.32;43.65;99970.59;4483847;32;34197;-71
2021/06/02 02:34:08;;;;;;;7.28;2.03;;;;;;;23.33;43.68;99971.44;4451245;31;33753;-70
2021/06/02 02:36:43;;;;;;;6.70;1.60;;;;;;;23.32;43.59;99965.16;4482668;32;33819;-71
2021/06/02 02:39:28;;;;;;;6.03;2.25;;;;;;;23.34;43.66;99967.62;4456966;32;34584;-68
2021/06/02 02:42:33;;;;;;;7.18;1.90;;;;;;;23.33;43.74;99964.09;4482626;32;33102;-71
2021/06/02 02:45:22;;;;;;;6.53;1.75;;;;;;;23.35;43.69;99972.84;4483930;32;34732;-70
2021/06/02 02:48:09;;;;;;;8.93;2.13;;;;;;;23.34;43.75;99967.62;4483869;32;34621;-70
2021/06/02 02:51:08;;;;;;;5.45;1.80;;;;;;;23.35;43.70;99966.59;4483760;32;34030;-70
2021/06/02 02:53:39;;;;;;;6.90;2.10;;;;;;;23.33;43.68;99958.66;4483873;32;34263;-70
2021/06/02 02:56:14;;;;;;;6.00;1.85;;;;;;;23.31;43.73;99973.53;4469661;32;33715;-70
2021/06/02 02:59:04;;;;;;;9.10;1.62;;;;;;;23.32;43.70;99970.59;4482521;32;33795;-70
2021/06/02 03:01:39;;;;;;;5.97;1.70;;;;;;;23.34;43.60;99973.09;4482575;32;33576;-71
2021/06/02 03:04:13;;;;;;;7.10;1.90;;;;;;;23.33;43.65;99971.44;4482361;32;34517;-70
2021/06/02 03:06:44;;;;;;;5.12;1.67;;;;;;;23.32;43.68;99981.50;4483412;32;33870;-68
2021/06/02 03:09:40;;;;;;;5.32;2.10;;;;;;;23.31;43.61;99982.53;4482368;32;34338;-70
2021/06/02 03:12:18;;;;;;;4.68;1.70;;;;;;;23.33;43.52;99988.59;4483518;32;34552;-70
2021/06/02 03:15:29;;;;;;;8.88;1.90;;;;;;;23.32;43.60;99994.28;4482330;32;32867;-70
2021/06/02 03:18:19;;;;;;;8.07;2.20;;;;;;;23.34;43.68;99989.44;4483455;32;33511;-71
2021/06/02 03:21:14;;;;;;;4.72;1.83;;;;;;;23.33;43.69;99999.50;4483524;32;33895;-71
2021/06/02 03:24:09;;;;;;;6.65;1.85;;;;;;;23.32;43.75;99997.00;4482086;32;34520;-70
2021/06/02 03:26:45;;;;;;;5.93;1.77;;;;;;;23.32;43.67;99997.00;4483087;32;33332;-70
2021/06/02 03:29:28;;;;;;;5.15;1.50;;;;;;;23.30;43.64;100001.81;4469531;32;33751;-69
2021/06/02 03:32:07;;;;;;;6.87;2.10;;;;;;;23.30;43.62;100015.41;4469783;32;33890;-69
2021/06/02 03:35:13;;;;;;;5.32;1.90;;;;;;;23.31;43.59;100014.34;4470035;32;33748;-70
2021/06/02 03:37:52;;;;;;;8.38;2.03;;;;;;;23.32;43.59;100016.06;4470034;31;33270;-69
2021/06/02 03:40:55;;;;;;;5.32;1.60;;;;;;;23.33;43.57;100015.00;4483168;32;33537;-70
2021/06/02 03:43:46;;;;;;;5.93;1.70;;;;;;;23.33;43.36;100018.53;4469669;31;33794;-70
2021/06/02 03:46:14;;;;;;;8.50;2.10;;;;;;;23.30;43.65;100015.41;4483391;32;33968;-68
2021/06/02 03:49:03;;;;;;;4.70;1.75;;;;;;;23.29;43.87;100020.03;4484907;31;33900;-70
2021/06/02 03:51:50;;;;;;;4.97;1.62;;;;;;;23.33;43.69;100031.31;4485267;32;34760;-70
2021/06/02 03:54:37;;;;;;;5.00;1.92;;;;;;;23.31;43.68;100025.25;4483942;32;34483;-70
2021/06/02 03:57:21;;;;;;;6.57;1.80;;;;;;;23.33;43.67;100025.88;4478400;32;33798;-68
2021/06/02 04:00:04;;;;;;;5.57;2.10;;;;;;;23.31;43.64;100036.97;4477987;32;33264;-68
2021/06/02 04:02:40;;;;;;;4.55;1.80;;;;;;;23.28;43.65;100036.59;4482028;32;33907;-68
2021/06/02 04:05:36;;;;;;;5.70;1.77;;;;;;;23.28;43.67;100039.31;4485090;32;34689;-68
2021/06/02 04:08:22;;;;;;;8.15;2.05;;;;;;;23.30;43.61;100035.31;4484973;32;33531;-67
2021/06/02 04:11:14;;;;;;;6.80;1.75;;;;;;;23.31;43.66;100036.97;4484745;32;34015;-67
2021/06/02 04:13:57;;;;;;;9.02;2.00;;;;;;;23.32;43.84;100043.28;4484646;32;34280;-67
2021/06/02 04:16:38;;;;;;;4.78;1.65;;;;;;;23.28;43.78;100051.03;4484864;32;33991;-68
2021/06/02 04:19:29;;;;;;;7.40;2.10;;;;;;;23.31;43.74;100050.59;4463782;32;33376;-68
2021/06/02 04:22:01;;;;;;;7.65;2.60;;;;;;;23.33;43.52;100047.66;4468152;32;34117;-68
2021/06/02 04:24:30;;;;;;;4.93;1.60;;;;;;;23.30;43.53;100048.94;4455431;32;33759;-68
2021/06/02 04:26:58;;;;;;;6.43;1.92;;;;;;;23.30;43.59;100053.53;4469267;32;33892;-68
2021/06/02 04:29:26;;;;;;;19.87;3.15;;;;;;;23.31;43.64;100056.03;4467806;32;33687;-66
2021/06/02 04:31:58;;;;;;;21.40;4.95;;;;;;;23.32;43.59;100055.00;4469000;32;33099;-67
2021/06/02 04:34:27;;;;;;;15.77;3.50;;;;;;;23.38;39.35;100056.84;4469132;32;34107;-66
2021/06/02 04:36:58;;;;;;;15.70;3.10;;;;;;;23.26;38.22;100063.19;4469003;32;33892;-67
2021/06/02 04:39:26;;;;;;;12.98;3.20;;;;;;;23.17;39.23;100060.75;4467514;32;33981;-67
2021/06/02 04:41:55;;;;;;;8.75;3.08;;;;;;;23.13;40.29;100059.50;4467898;32;34229;-68
2021/06/02 04:44:23;;;;;;;7.22;3.28;;;;;;;23.12;40.60;100063.28;4467758;32;33861;-67
2021/06/02 04:46:51;;;;;;;8.90;3.12;;;;;;;23.12;40.81;100057.81;4468901;32;34651;-67
2021/06/02 04:49:19;;;;;;;11.93;3.05;;;;;;;23.11;40.83;100063.50;4469016;32;33719;-67
2021/06/02 04:52:35;;;;;;;8.57;2.53;;;;;;;23.11;40.96;100066.22;4467583;32;33393;-66
2021/06/02 04:55:26;;;;;;;9.27;2.75;;;;;;;23.13;40.84;100070.41;4460524;32;33646;-68
2021/06/02 04:58:08;;;;;;;12.73;3.17;;;;;;;23.13;40.97;100075.84;4484680;32;34726;-68
2021/06/02 05:00:55;;;;;;;11.70;3.20;;;;;;;23.12;41.01;100084.22;4484493;32;33864;-67
2021/06/02 05:03:32;;;;;;;8.75;3.25;;;;;;;23.11;41.09;100086.09;4482422;32;33041;-67
2021/06/02 05:06:02;;;;;;;9.57;2.65;;;;;;;23.09;41.17;100085.50;4482931;32;34426;-69
2021/06/02 05:08:55;;;;;;;10.60;2.97;;;;;;;23.07;41.24;100079.41;4484412;32;33934;-69
2021/06/02 05:11:44;;;;;;;10.77;3.17;;;;;;;23.12;41.25;100078.78;4484453;32;33545;-69
2021/06/02 05:14:49;;;;;;;8.40;3.03;;;;;;;23.09;41.30;100076.50;4482458;32;34793;-70
2021/06/02 05:17:51;;;;;;;10.13;3.17;;;;;;;23.12;41.34;100087.75;4482978;32;34702;-69
2021/06/02 05:20:51;;;;;;;5.22;2.30;;;;;;;23.09;41.40;100087.38;4482762;32;33704;-68
2021/06/02 05:23:30;;;;;;;;;;;;;;;23.08;41.47;100082.97;4472446;32;34503;-70
2021/06/02 05:26:48;;;;;;;7.53;2.87;;;;;;;23.17;41.29;100087.97;4481610;32;34036;-69
2021/06/02 05:29:34;;;;;;;7.72;2.40;;;;;;;23.12;41.45;100087.75;4456150;32;33631;-69
2021/06/02 05:32:40;;;;;;;7.47;2.80;;;;;;;23.11;41.52;100093.44;4483177;32;34465;-67
2021/06/02 05:35:32;;;;;;;10.38;2.58;;;;;;;23.08;41.59;100089.28;4483838;32;33956;-69
2021/06/02 05:38:05;;;;;;;7.20;2.40;;;;;;;23.06;41.67;100094.09;4484365;32;33246;-69
2021/06/02 05:41:06;;;;;;;8.02;2.30;;;;;;;23.05;41.69;100089.69;4484292;32;33793;-68
2021/06/02 05:44:02;;;;;;;8.73;2.50;;;;;;;23.07;41.69;100094.91;4468981;32;33913;-69
2021/06/02 05:47:07;;;;;;;9.60;2.97;;;;;;;23.08;41.72;100093.88;4468515;32;34134;-70
2021/06/02 05:49:53;;;;;;;6.07;2.22;;;;;;;23.07;41.73;100093.03;4468605;32;33328;-69
2021/06/02 05:52:52;;;;;;;6.87;2.50;;;;;;;23.06;41.76;100093.25;4468961;32;34860;-69
2021/06/02 05:55:45;;;;;;;5.82;2.65;;;;;;;23.07;41.76;100092.19;4484523;32;34413;-68
2021/06/02 05:58:29;;;;;;;6.22;2.58;;;;;;;23.05;41.79;100084.25;4484222;32;33617;-69
2021/06/02 06:01:08;;;;;;;7.40;2.67;;;;;;;23.04;41.82;100079.03;4483179;32;33384;-70
2021/06/02 06:03:54;;;;;;;6.60;2.40;;;;;;;23.05;41.81;100088.88;4470852;32;33669;-70
2021/06/02 06:06:37;;;;;;;5.95;2.53;;;;;;;23.06;41.79;100094.09;4484148;32;34689;-70
2021/06/02 06:09:43;;;;;;;5.80;2.33;;;;;;;23.07;41.81;100097.63;4483213;32;33752;-69
2021/06/02 06:12:41;;;;;;;6.05;2.60;;;;;;;23.09;41.81;100107.28;4483032;32;33168;-70
2021/06/02 06:15:46;;;;;;;5.75;2.45;;;;;;;23.09;41.80;100104.56;4484123;32;34461;-68
2021/06/02 06:18:23;;;;;;;7.97;2.75;;;;;;;23.07;41.81;100103.91;4484060;32;33918;-68
2021/06/02 06:21:28;;;;;;;6.30;2.22;;;;;;;23.06;41.86;100110.41;4484074;32;34737;-68
2021/06/02 06:24:12;;;;;;;6.37;2.30;;;;;;;23.07;41.85;100113.97;4483893;32;33237;-69
2021/06/02 06:26:44;;;;;;;6.55;2.55;;;;;;;23.07;41.86;100114.81;4470047;32;33692;-69
2021/06/02 06:29:20;;;;;;;5.28;2.47;;;;;;;23.05;41.91;100111.47;4484391;32;34005;-70
2021/06/02 06:31:49;;;;;;;5.93;2.45;;;;;;;23.05;41.90;100116.91;4482706;32;33797;-69
2021/06/02 06:34:21;;;;;;;6.72;2.50;;;;;;;23.06;41.89;100117.75;4469742;32;34914;-68
2021/06/02 06:36:50;;;;;;;6.78;2.30;;;;;;;23.07;41.88;100120.25;4457101;32;34562;-69
2021/06/02 06:39:23;;;;;;;4.78;2.50;;;;;;;23.07;41.87;100114.81;4469763;32;33927;-68
2021/06/02 06:41:51;;;;;;;5.82;2.60;;;;;;;23.07;41.87;100114.81;4482346;32;33728;-70
2021/06/02 06:44:18;;;;;;;6.05;2.35;;;;;;;23.08;41.86;100118.34;4482570;32;33973;-66
2021/06/02 06:46:46;;;;;;;4.18;2.40;;;;;;;23.09;41.85;100117.31;4469768;32;33654;-69
2021/06/02 06:49:14;;;;;;;5.65;2.40;;;;;;;23.09;41.84;100111.87;4470158;32;34745;-69
2021/06/02 06:51:42;;;;;;;5.95;2.30;;;;;;;23.09;41.83;100114.59;4469651;32;33831;-69
2021/06/02 06:54:11;;;;;;;4.20;2.15;;;;;;;23.09;41.82;100118.16;4482469;32;32897;-68
2021/06/02 06:56:41;;;;;;;4.90;2.25;;;;;;;23.09;41.84;100118.16;4482514;32;33899;-68
2021/06/02 06:59:08;;;;;;;7.72;2.78;;;;;;;23.11;41.82;100113.31;4469474;32;33925;-69
2021/06/02 07:01:37;;;;;;;5.25;2.40;;;;;;;23.10;41.81;100110.81;4483728;32;33802;-67
2021/06/02 07:04:07;;;;;;;4.30;2.30;;;;;;;23.09;41.82;100112.72;4482284;32;32937;-69
2021/06/02 07:06:38;;;;;;;4.72;2.40;;;;;;;23.10;41.82;100110.81;4483234;32;33771;-69
2021/06/02 07:09:05;;;;;;;5.72;2.45;;;;;;;23.10;41.84;100113.53;4483636;32;33998;-69
2021/06/02 07:11:40;;;;;;;4.70;2.05;;;;;;;23.11;41.84;100115.22;4483621;32;33908;-67
2021/06/02 07:14:12;;;;;;;5.45;2.42;;;;;;;23.11;41.83;100118.75;4482940;32;33189;-68
2021/06/02 07:16:40;;;;;;;5.55;2.53;;;;;;;23.11;41.85;100120.66;4482282;32;34489;-68
2021/06/02 07:19:08;;;;;;;7.03;2.45;;;;;;;23.12;41.84;100127.75;4483368;32;34821;-68
2021/06/02 07:21:37;;;;;;;8.20;2.20;;;;;;;23.12;41.84;100123.16;4487325;32;33946;-69
2021/06/02 07:24:09;;;;;;;4.12;2.45;;;;;;;23.12;41.84;100122.31;4487545;32;33659;-69
2021/06/02 07:26:38;;;;;;;5.47;2.42;;;;;;;23.12;41.85;100125.03;4474387;32;33891;-69
2021/06/02 07:29:22;;;;;;;6.80;2.55;;;;;;;23.11;41.87;100126.94;4487253;32;33932;-70
2021/06/02 07:31:50;;;;;;;5.45;2.22;;;;;;;23.13;41.84;100122.13;4488491;32;34297;-68
2021/06/02 07:34:19;;;;;;;5.50;2.60;;;;;;;23.13;41.84;100124.84;4488006;32;34017;-69
2021/06/02 07:36:50;;;;;;;5.37;2.23;;;;;;;23.14;41.84;100131.13;4488474;32;33736;-66
2021/06/02 07:39:18;;;;;;;4.25;2.25;;;;;;;23.13;41.82;100133.00;4487099;32;34532;-69
2021/06/02 07:41:45;;;;;;;5.80;2.20;;;;;;;23.14;41.84;100137.41;4488341;32;33705;-68
2021/06/02 07:44:13;;;;;;;3.10;1.75;;;;;;;23.14;41.83;100136.56;4487972;32;33430;-70
2021/06/02 07:46:41;;;;;;;4.95;2.15;;;;;;;23.15;41.82;100138.22;4488150;32;33692;-69
2021/06/02 07:49:09;;;;;;;5.03;2.10;;;;;;;23.16;41.81;100134.44;4488048;32;33940;-69
2021/06/02 07:51:36;;;;;;;4.05;2.45;;;;;;;23.15;41.81;100141.78;4486670;32;35203;-68
2021/06/02 07:54:05;;;;;;;3.72;2.12;;;;;;;23.15;41.81;100139.06;4488145;32;33385;-68
2021/06/02 07:56:33;;;;;;;5.18;2.30;;;;;;;23.16;41.81;100140.72;4486995;32;33700;-69
2021/06/02 07:59:01;;;;;;;4.30;2.00;;;;;;;23.15;41.80;100141.78;4487878;32;33851;-68
2021/06/02 08:01:28;;;;;;;4.60;2.12;;;;;;;23.16;41.79;100140.72;4487706;32;34421;-69
2021/06/02 08:03:56;;;;;;;5.45;2.30;;;;;;;23.17;41.79;100141.56;4487081;32;33499;-68
2021/06/02 08:06:24;;;;;;;6.37;2.37;;;;;;;23.16;41.79;100138.00;4488066;32;34649;-69
2021/06/02 08:08:51;;;;;;;5.00;2.00;;;;;;;23.17;41.80;100141.56;4487955;32;34971;-69
2021/06/02 08:11:19;;;;;;;5.80;2.30;;;;;;;23.17;41.79;100131.53;4487096;32;35446;-69
2021/06/02 08:13:47;;;;;;;3.65;2.00;;;;;;;23.16;41.79;100143.44;4487578;32;33490;-68
2021/06/02 08:16:14;;;;;;;3.97;1.85;;;;;;;23.17;41.78;100144.28;4487874;32;33874;-68
2021/06/02 08:18:44;;;;;;;4.05;2.00;;;;;;;23.18;41.79;100148.69;4487858;32;33915;-68
2021/06/02 08:21:11;;;;;;;4.70;2.42;;;;;;;23.17;41.78;100145.16;4487318;32;34626;-68
2021/06/02 08:23:39;;;;;;;3.20;1.60;;;;;;;23.17;41.78;100145.16;4486272;32;33285;-68
2021/06/02 08:26:08;;;;;;;4.53;2.20;;;;;;;23.17;41.79;100147.88;4487764;32;33749;-69
2021/06/02 08:28:36;;;;;;;5.35;2.33;;;;;;;23.17;41.78;100142.41;4487797;32;33519;-69
2021/06/02 08:31:03;;;;;;;4.05;2.20;;;;;;;23.17;41.78;100156.03;4484491;32;34492;-67
2021/06/02 08:33:31;;;;;;;4.07;2.00;;;;;;;23.17;41.77;100153.31;4484750;32;33548;-69
2021/06/02 08:36:00;;;;;;;4.30;1.87;;;;;;;23.18;41.76;100156.88;4484530;32;35269;-68
2021/06/02 08:38:28;;;;;;;6.22;2.28;;;;;;;23.17;41.77;100156.03;4484827;32;33606;-68
2021/06/02 08:40:56;;;;;;;4.53;2.42;;;;;;;23.20;41.75;100148.47;4483278;32;33311;-70
2021/06/02 08:43:23;;;;;;;5.35;2.10;;;;;;;23.19;41.76;100149.53;4484715;32;34215;-68
2021/06/02 08:45:51;;;;;;;2.87;1.70;;;;;;;23.19;41.76;100149.53;4484911;32;33727;-69
2021/06/02 08:48:18;;;;;;;4.55;2.28;;;;;;;23.17;41.75;100147.88;4470555;32;33776;-69
2021/06/02 08:50:46;;;;;;;5.30;2.53;;;;;;;23.19;41.75;100157.69;4484261;32;33769;-68
2021/06/02 08:53:18;;;;;;;3.05;1.83;;;;;;;23.20;41.75;100153.91;4483490;32;33298;-68
2021/06/02 08:55:46;;;;;;;4.75;2.40;;;;;;;23.19;41.76;100154.97;4484525;32;33895;-69
2021/06/02 08:58:20;;;;;;;3.22;1.87;;;;;;;23.20;41.75;100148.47;4484447;32;33618;-69
2021/06/02 09:00:49;;;;;;;3.85;1.80;;;;;;;23.20;41.75;100148.47;4483080;32;34047;-67
2021/06/02 09:03:16;;;;;;;3.65;1.80;;;;;;;23.19;41.76;100144.09;4484604;32;33553;-67
2021/06/02 09:05:44;;;;;;;4.20;2.15;;;;;;;23.20;41.75;100140.31;4483424;32;33647;-69
2021/06/02 09:08:12;;;;;;;3.80;2.00;;;;;;;23.19;41.76;100144.91;4483381;32;33800;-69
2021/06/02 09:10:43;;;;;;;4.93;1.90;;;;;;;23.20;41.75;100145.75;4482229;32;33827;-69
2021/06/02 09:13:16;;;;;;;5.15;2.08;;;;;;;23.19;41.77;100146.81;4483923;32;33284;-68
2021/06/02 09:15:45;;;;;;;4.05;2.00;;;;;;;23.19;41.77;100146.81;4454892;32;34513;-68
2021/06/02 09:18:17;;;;;;;4.15;2.10;;;;;;;23.19;41.76;100153.09;4468683;32;33848;-69
2021/06/02 09:20:55;;;;;;;3.83;1.80;;;;;;;23.19;41.78;100138.63;4468279;32;34009;-69
2021/06/02 09:23:31;;;;;;;6.10;2.20;;;;;;;23.21;41.73;100147.41;4469535;32;33101;-69
2021/06/02 09:26:11;;;;;;;3.33;1.80;;;;;;;23.19;41.75;100133.19;4482899;32;33785;-69
2021/06/02 09:28:54;;;;;;;3.92;1.65;;;;;;;23.20;41.73;100134.84;4484306;32;33795;-69
2021/06/02 09:31:44;;;;;;;4.50;1.80;;;;;;;23.20;41.74;100132.97;4484463;32;33747;-68
2021/06/02 09:34:18;;;;;;;4.72;1.70;;;;;;;23.18;41.76;100135.09;4484062;32;33349;-69
2021/06/02 09:36:47;;;;;;;4.28;1.90;;;;;;;23.19;41.76;100142.19;4484176;32;33524;-69
2021/06/02 09:39:16;;;;;;;4.05;1.60;;;;;;;23.17;41.78;100131.53;4482964;32;33834;-69
2021/06/02 09:41:46;;;;;;;3.05;1.58;;;;;;;23.19;41.76;100134.03;4483943;32;33761;-68
2021/06/02 09:44:19;;;;;;;3.12;1.75;;;;;;;23.19;41.78;100138.63;4482028;32;33995;-69
2021/06/02 09:46:57;;;;;;;3.65;2.00;;;;;;;23.19;41.76;100131.31;4482987;32;34742;-69
2021/06/02 09:49:28;;;;;;;3.05;1.70;;;;;;;23.20;41.74;100132.97;4484325;32;33844;-67
2021/06/02 09:51:56;;;;;;;2.87;1.70;;;;;;;23.18;41.77;100132.37;4484238;32;33714;-68
2021/06/02 09:54:24;;;;;;;3.30;1.85;;;;;;;23.19;41.76;100130.47;4484044;32;34077;-69
2021/06/02 09:56:51;;;;;;;3.85;2.00;;;;;;;23.19;41.77;100130.47;4482987;32;33821;-67
2021/06/02 09:59:20;;;;;;;4.50;1.83;;;;;;;23.19;41.76;100122.31;4484009;32;33971;-67
2021/06/02 10:01:58;;;;;;;3.70;1.98;;;;;;;23.19;41.75;100123.13;4484014;32;33835;-68
2021/06/02 10:04:27;;;;;;;3.45;1.70;;;;;;;23.21;41.73;100120.19;4483782;32;34409;-69
2021/06/02 10:06:54;;;;;;;3.22;1.90;;;;;;;23.18;41.74;100107.88;4484222;32;33750;-68
2021/06/02 10:09:30;;;;;;;4.60;2.00;;;;;;;23.18;41.74;100110.59;4482940;32;33899;-69
2021/06/02 10:11:59;;;;;;;2.80;1.70;;;;;;;23.18;41.76;100113.31;4482657;32;33704;-69
2021/06/02 10:14:27;;;;;;;5.22;2.08;;;;;;;23.19;41.74;100114.13;4483762;32;33448;-69
2021/06/02 10:16:55;;;;;;;4.45;1.98;;;;;;;23.20;41.72;100108.47;4482669;32;33777;-69
2021/06/02 10:19:40;;;;;;;3.70;1.80;;;;;;;23.21;41.72;100109.31;4469996;32;34630;-69
2021/06/02 10:22:29;;;;;;;3.65;1.83;;;;;;;23.21;41.70;100109.31;4484370;32;34715;-69
2021/06/02 10:24:59;;;;;;;3.75;1.87;;;;;;;23.22;41.71;100110.97;4483839;32;33237;-68
2021/06/02 10:27:27;;;;;;;2.55;1.60;;;;;;;23.19;41.74;100106.81;4484041;32;33770;-68
2021/06/02 10:29:55;;;;;;;3.45;1.90;;;;;;;23.20;41.73;100113.09;4481746;32;34583;-67
2021/06/02 10:32:22;;;;;;;3.37;1.95;;;;;;;23.20;41.74;100110.34;4464248;32;32549;-67
2021/06/02 10:34:54;;;;;;;3.50;1.80;;;;;;;23.20;41.70;100110.34;4470873;32;33030;-67
2021/06/02 10:37:23;;;;;;;3.90;1.83;;;;;;;23.19;41.69;100111.41;4475921;32;34524;-67
2021/06/02 10:39:59;;;;;;;3.72;2.00;;;;;;;23.19;41.71;100112.25;4480936;32;33812;-68
2021/06/02 10:42:51;;;;;;;4.05;1.90;;;;;;;23.21;41.70;100114.75;4468520;32;34197;-66
2021/06/02 10:45:45;;;;;;;4.32;1.80;;;;;;;23.22;41.69;100108.25;4478126;32;33475;-68
2021/06/02 10:48:12;;;;;;;2.45;1.60;;;;;;;23.21;41.73;100109.31;4471017;32;33560;-68
2021/06/02 10:50:41;;;;;;;3.75;1.90;;;;;;;23.22;41.69;100119.13;4467956;32;33880;-68
2021/06/02 10:53:18;;;;;;;2.90;1.80;;;;;;;23.21;41.71;100109.31;4480937;32;33823;-69
2021/06/02 10:56:00;;;;;;;3.55;1.62;;;;;;;23.21;41.71;100107.41;4469198;32;34336;-69
2021/06/02 10:58:52;;;;;;;2.45;1.60;;;;;;;23.21;41.72;100103.84;4476331;32;33544;-68
2021/06/02 11:01:21;;;;;;;3.37;1.77;;;;;;;23.21;41.71;100112.03;4478561;32;34793;-69
2021/06/02 11:04:10;;;;;;;2.50;1.30;;;;;;;23.21;41.70;100104.69;4483555;32;33695;-67
2021/06/02 11:06:42;;;;;;;2.90;1.75;;;;;;;23.23;41.71;100107.22;4483261;32;33003;-68
2021/06/02 11:09:13;;;;;;;3.05;1.75;;;;;;;23.21;41.71;100096.53;4482251;32;33724;-69
2021/06/02 11:11:42;;;;;;;2.55;1.52;;;;;;;23.20;41.72;100110.34;4483049;32;33627;-68
2021/06/02 11:14:13;;;;;;;3.08;1.90;;;;;;;23.20;41.72;100104.91;4483351;32;34414;-69
2021/06/02 11:16:41;;;;;;;3.78;1.77;;;;;;;23.22;41.72;100105.50;4483214;32;33960;-69
2021/06/02 11:19:15;;;;;;;5.40;1.73;;;;;;;23.22;41.74;100108.25;4482571;32;34899;-66
2021/06/02 11:21:52;;;;;;;4.20;1.87;;;;;;;23.21;41.73;100106.56;4483465;32;33885;-67
2021/06/02 11:24:32;;;;;;;3.80;1.85;;;;;;;23.21;41.71;100110.12;4467505;32;34836;-69
2021/06/02 11:27:10;;;;;;;2.92;1.62;;;;;;;23.23;41.73;100120.81;4469149;32;33377;-67
2021/06/02 11:29:54;;;;;;;3.97;1.65;;;;;;;23.21;41.72;100121.03;4483141;32;33748;-69
2021/06/02 11:32:25;;;;;;;3.97;1.70;;;;;;;23.21;41.72;100114.75;4483093;32;34632;-68
2021/06/02 11:34:57;;;;;;;2.65;1.70;;;;;;;23.19;41.77;100112.25;4483075;32;33954;-68
2021/06/02 11:37:29;;;;;;;3.08;1.80;;;;;;;23.19;41.74;100111.41;4482874;32;34149;-68
2021/06/02 11:39:57;;;;;;;4.25;1.80;;;;;;;23.19;41.74;100120.41;4468913;32;34850;-66
2021/06/02 11:42:35;;;;;;;3.60;1.73;;;;;;;23.19;41.73;100108.69;4482361;32;34704;-69
2021/06/02 11:45:13;;;;;;;2.90;1.60;;;;;;;23.20;41.72;100107.63;4483157;32;34722;-69
2021/06/02 11:47:45;;;;;;;2.92;1.70;;;;;;;23.20;41.71;100111.19;4482539;32;34146;-69
2021/06/02 11:50:17;;;;;;;3.30;1.80;;;;;;;23.19;41.73;100122.31;4483147;32;33829;-69
2021/06/02 11:52:45;;;;;;;3.15;1.73;;;;;;;23.19;41.72;100116.88;4482598;32;33815;-69
2021/06/02 11:55:14;;;;;;;2.75;1.77;;;;;;;23.17;41.71;100117.91;4482559;32;33754;-69
2021/06/02 11:57:43;;;;;;;2.80;1.70;;;;;;;23.18;41.71;100121.47;4482074;32;34313;-67
2021/06/02 12:00:11;;;;;;;3.15;1.55;;;;;;;23.19;41.70;100114.97;4481193;32;34630;-69
2021/06/02 12:02:39;;;;;;;2.47;1.70;;;;;;;23.20;41.69;100118.53;4480490;32;33663;-69
2021/06/02 12:05:26;;;;;;;3.67;1.50;;;;;;;23.19;41.69;100103.25;4479612;32;34525;-69
2021/06/02 12:07:55;;;;;;;3.75;2.00;;;;;;;23.21;41.67;100114.75;4483109;32;33070;-69
2021/06/02 12:10:24;;;;;;;2.62;1.55;;;;;;;23.19;41.70;100112.25;4481208;32;33714;-69